EKAH

Aarhus Airport

Aarhus, Denmark
TAF EKAH 211701Z 2118/2218 28008KT 9999 SCT030
Issued Valid From Valid To
Jul-21 @ 17:01 UTC
(6 hours ago)
Jul-21 @ 18:00 UTC
(5 hours ago)
Jul-22 @ 18:00 UTC
(in 19 hours)
Jul-21 @ 18:00 to Jul-22 @ 18:00
TAF EKAH 211701Z 2118/2218 28008KT 9999 SCT030
Wind Visibility Clouds
280° at 8 knots 10,000+ meters
  • Scattered at 3,000' AGL
TAF EKAH 211701Z 2118/2218 28008KT 9999 SCT030
Issued Jul-21 @ 17:01 UTC
(6 hours ago)
Valid From Jul-21 @ 18:00 UTC
(5 hours ago)
Valid To Jul-22 @ 18:00 UTC
(in 19 hours)
Jul-21 @ 18:00 - Jul-22 @ 18:00
Wind Visibility
280° at 8 knots 10,000+ meters
Clouds
  • Scattered at 3,000' AGL